Time;durP1;ratioP1;P1;durP2;ratioP2;P2;SDS_P1;SDS_P2;PMS_P1;PMS_P2;Temp;Humidity;BMP_temperature;BMP_pressure;BME280_temperature;BME280_humidity;BME280_pressure;Samples;Min_cycle;Max_cycle;Signal;HPM_P1;HPM_P2
2023/05/11 00:01:53;;;;;;;1.38;1.17;;;9.90;1.00;;;;;;6216326;23;20063;-85
2023/05/11 00:04:40;;;;;;;1.45;1.10;;;9.90;1.00;;;;;;6213279;23;20033;-86
2023/05/11 00:07:28;;;;;;;13.10;5.80;;;9.90;1.00;;;;;;6191482;23;20029;-84
2023/05/11 00:10:16;;;;;;;6.38;4.40;;;9.90;99.90;;;;;;6215388;23;20301;-83
2023/05/11 00:13:09;;;;;;;2.53;2.10;;;9.90;99.90;;;;;;6214027;23;20028;-83
2023/05/11 00:15:57;;;;;;;2.30;2.10;;;9.90;99.90;;;;;;6212898;23;20053;-86
2023/05/11 00:18:47;;;;;;;1.75;1.40;;;9.90;99.90;;;;;;6213114;23;20020;-84
2023/05/11 00:21:35;;;;;;;3.90;1.20;;;9.90;99.90;;;;;;6217712;23;20024;-86
2023/05/11 00:24:25;;;;;;;2.38;1.23;;;9.90;1.00;;;;;;6216280;23;20044;-82
2023/05/11 00:27:13;;;;;;;1.98;1.23;;;9.90;16.30;;;;;;6214494;23;20032;-83
2023/05/11 00:30:00;;;;;;;2.22;1.10;;;9.90;99.90;;;;;;6217899;23;20028;-84
2023/05/11 00:32:56;;;;;;;3.10;1.30;;;9.90;99.90;;;;;;6215656;23;20032;-86
2023/05/11 00:35:43;;;;;;;2.47;1.20;;;9.90;99.90;;;;;;6218281;23;20099;-86
2023/05/11 00:38:31;;;;;;;0.90;0.90;;;9.90;99.90;;;;;;6217230;23;20034;-82
2023/05/11 00:41:20;;;;;;;4.15;1.20;;;9.90;1.00;;;;;;6215206;23;20082;-87
2023/05/11 00:44:08;;;;;;;4.20;1.30;;;9.90;73.90;;;;;;6214426;23;20036;-86
2023/05/11 00:46:58;;;;;;;1.27;1.17;;;9.90;99.90;;;;;;6175317;23;20106;-86
2023/05/11 00:50:10;;;;;;;1.25;1.10;;;9.90;1.00;;;;;;6213935;23;20081;-86
2023/05/11 00:53:01;;;;;;;2.35;1.20;;;9.90;99.90;;;;;;6173849;23;20102;-87
2023/05/11 00:55:49;;;;;;;4.07;1.10;;;9.90;99.90;;;;;;6215620;23;20111;-86
2023/05/11 00:58:41;;;;;;;2.53;1.10;;;9.80;1.00;;;;;;6215190;23;20048;-86
2023/05/11 01:01:29;;;;;;;3.22;1.58;;;9.90;18.70;;;;;;6214208;23;20029;-86
2023/05/11 01:04:17;;;;;;;1.75;1.05;;;9.90;99.90;;;;;;6216130;23;20443;-86
2023/05/11 01:07:08;;;;;;;1.30;1.20;;;9.90;99.90;;;;;;6218376;23;20436;-85
2023/05/11 01:10:31;;;;;;;4.97;1.25;;;9.80;99.90;;;;;;6215041;23;20024;-85
2023/05/11 01:13:57;;;;;;;1.30;1.20;;;9.80;99.90;;;;;;6215435;23;20024;-85
2023/05/11 01:17:04;;;;;;;1.98;1.20;;;9.80;1.00;;;;;;6215291;23;20039;-87
2023/05/11 01:20:00;;;;;;;2.65;1.40;;;9.80;1.00;;;;;;6215080;23;20024;-85
2023/05/11 01:23:06;;;;;;;5.55;1.40;;;9.80;1.00;;;;;;6199106;23;20020;-86
2023/05/11 01:26:32;;;;;;;3.13;1.15;;;9.80;42.40;;;;;;6193636;23;20033;-87
2023/05/11 01:29:49;;;;;;;5.88;1.30;;;9.70;91.80;;;;;;6214426;23;20455;-86
2023/05/11 01:32:39;;;;;;;2.38;1.20;;;9.70;99.90;;;;;;6213940;23;20028;-82
2023/05/11 01:35:36;;;;;;;2.05;1.10;;;9.70;99.90;;;;;;6213881;23;20723;-87
2023/05/11 01:38:33;;;;;;;1.33;1.20;;;9.70;99.90;;;;;;6213241;23;20036;-86
2023/05/11 01:41:22;;;;;;;2.65;1.30;;;9.70;99.90;;;;;;6192685;23;20074;-85
2023/05/11 01:44:13;;;;;;;2.28;1.48;;;9.70;99.90;;;;;;6213558;23;20324;-86
2023/05/11 01:47:05;;;;;;;1.48;1.38;;;9.70;99.90;;;;;;6214279;23;20028;-85
2023/05/11 01:49:53;;;;;;;1.38;1.20;;;9.70;99.90;;;;;;6213756;23;20447;-85
2023/05/11 01:53:12;;;;;;;2.00;1.45;;;9.70;99.90;;;;;;6192214;23;20032;-86
2023/05/11 01:56:04;;;;;;;2.35;1.58;;;9.70;99.90;;;;;;6217075;23;20368;-85
2023/05/11 01:59:17;;;;;;;1.25;1.15;;;9.60;99.90;;;;;;6195322;23;20028;-86
2023/05/11 02:02:07;;;;;;;2.30;1.48;;;9.60;99.90;;;;;;6214348;23;20441;-86
2023/05/11 02:04:59;;;;;;;3.90;1.75;;;9.60;99.90;;;;;;6192436;23;20028;-85
2023/05/11 02:07:49;;;;;;;1.77;1.60;;;9.60;99.90;;;;;;6215179;23;20032;-85
2023/05/11 02:10:38;;;;;;;1.88;1.75;;;9.60;99.90;;;;;;6213479;23;20104;-86
2023/05/11 02:13:27;;;;;;;2.08;1.65;;;9.60;99.90;;;;;;6215274;23;20029;-87
2023/05/11 02:16:28;;;;;;;1.67;1.33;;;9.60;99.90;;;;;;6215637;23;20021;-86
2023/05/11 02:28:11;;;;;;;1.58;1.30;;;9.60;99.90;;;;;;6214193;23;20012;-85
2023/05/11 02:31:13;;;;;;;3.63;1.73;;;9.50;99.90;;;;;;6214360;23;20016;-86
2023/05/11 02:34:19;;;;;;;2.70;2.03;;;9.50;99.90;;;;;;6214818;23;20412;-85
2023/05/11 02:37:46;;;;;;;2.03;1.80;;;9.50;99.90;;;;;;6215390;23;20056;-86
2023/05/11 02:40:45;;;;;;;3.53;1.60;;;9.50;99.90;;;;;;6202684;23;20179;-86
2023/05/11 02:44:13;;;;;;;2.60;1.67;;;9.50;99.90;;;;;;6214950;23;20025;-84
2023/05/11 02:47:03;;;;;;;2.05;1.90;;;9.50;99.90;;;;;;6212436;23;20055;-84
2023/05/11 02:49:53;;;;;;;2.00;1.80;;;9.50;99.90;;;;;;6213676;23;20035;-83
2023/05/11 02:52:45;;;;;;;2.95;1.90;;;9.50;99.90;;;;;;6213039;23;20036;-83
2023/05/11 02:55:35;;;;;;;2.42;1.88;;;9.50;99.90;;;;;;6212720;23;20035;-84
2023/05/11 02:58:22;;;;;;;2.25;1.70;;;9.50;99.90;;;;;;6215775;23;20024;-86
2023/05/11 03:01:11;;;;;;;5.28;2.25;;;9.50;99.90;;;;;;6217472;23;20047;-85
2023/05/11 03:04:02;;;;;;;6.15;1.95;;;9.50;99.90;;;;;;6173928;23;20059;-86
2023/05/11 03:06:49;;;;;;;3.10;2.00;;;9.50;99.90;;;;;;6192476;23;20024;-86
2023/05/11 03:09:36;;;;;;;2.80;1.98;;;9.50;99.90;;;;;;6214302;23;20491;-86
2023/05/11 03:12:26;;;;;;;4.10;2.05;;;9.40;99.90;;;;;;6213496;23;20103;-86
2023/05/11 03:15:14;;;;;;;1.90;1.75;;;9.50;99.90;;;;;;6191319;23;20024;-87
2023/05/11 03:18:03;;;;;;;2.10;1.90;;;9.50;99.90;;;;;;6216988;23;20028;-85
2023/05/11 03:20:53;;;;;;;6.40;1.90;;;9.40;99.90;;;;;;6212459;23;20032;-85
2023/05/11 03:23:40;;;;;;;3.05;1.88;;;9.40;99.90;;;;;;6216023;23;20476;-86
2023/05/11 03:26:30;;;;;;;3.60;2.38;;;9.40;99.90;;;;;;6212464;23;20032;-86
2023/05/11 03:29:21;;;;;;;2.20;2.00;;;9.40;99.90;;;;;;6213124;23;20024;-84
2023/05/11 03:32:08;;;;;;;3.03;2.28;;;9.50;99.90;;;;;;6213601;23;20432;-86
2023/05/11 03:34:56;;;;;;;2.97;2.10;;;9.40;99.90;;;;;;6216606;23;20099;-86
2023/05/11 03:37:44;;;;;;;3.50;2.10;;;9.40;99.90;;;;;;6193531;23;20340;-85
2023/05/11 03:40:33;;;;;;;2.40;2.20;;;9.50;99.90;;;;;;6216358;23;20035;-84
2023/05/11 03:43:25;;;;;;;5.68;2.40;;;9.40;99.90;;;;;;6216309;23;20021;-86
2023/05/11 03:46:15;;;;;;;4.78;2.40;;;9.40;99.90;;;;;;6213323;23;20052;-86
2023/05/11 03:49:04;;;;;;;5.60;2.50;;;9.40;99.90;;;;;;6213755;23;20024;-86
2023/05/11 03:51:52;;;;;;;4.80;2.70;;;9.40;99.90;;;;;;6198545;23;20032;-87
2023/05/11 03:54:45;;;;;;;3.65;2.47;;;9.40;99.90;;;;;;6217532;23;20060;-87
2023/05/11 03:57:33;;;;;;;2.47;2.28;;;9.40;99.90;;;;;;6195191;23;20044;-86
2023/05/11 04:00:20;;;;;;;3.60;2.28;;;9.40;99.90;;;;;;6193201;23;20032;-86
2023/05/11 04:03:16;;;;;;;4.13;2.40;;;9.40;99.90;;;;;;6217241;23;20025;-86
2023/05/11 04:06:06;;;;;;;6.72;2.30;;;9.40;99.90;;;;;;6212965;23;20114;-86
2023/05/11 04:08:56;;;;;;;2.83;2.30;;;9.40;99.90;;;;;;6214131;23;20028;-85
2023/05/11 04:11:43;;;;;;;3.05;2.42;;;9.50;99.90;;;;;;6194602;23;20029;-86
2023/05/11 04:14:31;;;;;;;3.00;2.42;;;9.50;99.90;;;;;;6216251;23;20029;-86
2023/05/11 04:17:18;;;;;;;5.80;2.20;;;9.50;99.90;;;;;;6215271;23;20487;-85
2023/05/11 04:20:07;;;;;;;4.00;2.38;;;9.50;99.90;;;;;;6212735;23;20029;-86
2023/05/11 04:22:54;;;;;;;4.35;2.58;;;9.50;99.90;;;;;;6192417;23;20408;-86
2023/05/11 04:25:41;;;;;;;4.90;3.13;;;9.50;99.90;;;;;;6215384;23;20107;-86
2023/05/11 04:28:31;;;;;;;2.92;2.38;;;9.50;99.90;;;;;;6216372;23;20300;-86
2023/05/11 04:31:18;;;;;;;4.55;2.47;;;9.50;99.90;;;;;;6213165;23;20028;-86
2023/05/11 04:34:07;;;;;;;2.63;2.33;;;9.50;99.90;;;;;;6211910;23;20037;-85
2023/05/11 04:36:54;;;;;;;3.72;2.35;;;9.60;99.90;;;;;;6213333;23;20336;-86
2023/05/11 04:39:41;;;;;;;3.15;2.45;;;9.60;99.90;;;;;;6213355;23;20033;-86
2023/05/11 04:42:31;;;;;;;2.97;2.53;;;9.60;99.90;;;;;;6191678;23;20527;-85
2023/05/11 04:45:19;;;;;;;4.13;2.50;;;9.60;99.90;;;;;;6211000;23;20029;-86
2023/05/11 04:48:08;;;;;;;3.47;2.38;;;9.60;99.90;;;;;;6214556;23;20107;-85
2023/05/11 04:50:56;;;;;;;7.20;2.67;;;9.60;99.90;;;;;;6190896;23;20032;-86
2023/05/11 04:53:43;;;;;;;7.32;2.60;;;9.60;99.90;;;;;;6190891;23;20433;-84
2023/05/11 04:56:32;;;;;;;6.15;2.80;;;9.60;99.90;;;;;;6194885;23;20437;-85
2023/05/11 04:59:20;;;;;;;5.97;2.45;;;9.60;99.90;;;;;;6193745;23;20028;-86
2023/05/11 05:02:07;;;;;;;8.88;2.45;;;9.70;99.90;;;;;;6215245;23;20102;-84
2023/05/11 05:04:54;;;;;;;4.40;2.40;;;9.70;99.90;;;;;;6212864;23;20029;-85
2023/05/11 05:07:44;;;;;;;9.63;4.32;;;9.70;99.90;;;;;;6212913;23;20328;-84
2023/05/11 05:10:32;;;;;;;9.48;5.47;;;9.80;99.90;;;;;;6193714;23;20032;-85
2023/05/11 05:13:19;;;;;;;8.82;3.72;;;9.80;99.90;;;;;;6213993;23;20036;-84
2023/05/11 05:16:09;;;;;;;5.38;2.38;;;9.80;99.90;;;;;;6214718;23;20332;-84
2023/05/11 05:18:56;;;;;;;4.22;2.80;;;9.90;99.90;;;;;;6196565;23;20032;-82
2023/05/11 05:21:43;;;;;;;7.60;3.30;;;9.90;99.90;;;;;;6193670;23;20098;-85
2023/05/11 05:24:33;;;;;;;7.68;2.83;;;10.00;99.90;;;;;;6216617;23;20055;-84
2023/05/11 05:27:21;;;;;;;5.63;2.65;;;10.00;99.90;;;;;;6194834;23;20052;-86
2023/05/11 05:30:11;;;;;;;3.88;3.00;;;10.00;99.90;;;;;;6212305;23;20293;-84
2023/05/11 05:32:58;;;;;;;5.35;2.60;;;10.10;99.90;;;;;;6213516;23;20056;-84
2023/05/11 05:35:45;;;;;;;4.15;2.15;;;10.00;99.90;;;;;;6210551;23;20028;-85
2023/05/11 05:38:42;;;;;;;3.92;2.70;;;10.00;99.90;;;;;;6216094;23;20028;-88
2023/05/11 05:41:40;;;;;;;;;;;;;;;;;;;;;
2023/05/11 05:44:34;;;;;;;3.05;2.38;;;10.10;99.90;;;;;;6216173;23;20042;-88
2023/05/11 05:47:41;;;;;;;3.17;2.30;;;10.20;99.90;;;;;;6211070;23;20028;-89
2023/05/11 05:51:02;;;;;;;4.00;2.40;;;10.30;99.90;;;;;;6196555;23;20249;-90
2023/05/11 05:54:06;;;;;;;4.07;2.25;;;10.40;99.90;;;;;;6196851;23;20017;-89
2023/05/11 05:58:00;;;;;;;;;;;;;;;;;;;;;
2023/05/11 06:01:40;;;;;;;;;;;;;;;;;;;;;
2023/05/11 06:05:22;;;;;;;3.00;1.60;;;10.50;1.00;;;;;;6214477;23;20110;-86
2023/05/11 06:08:38;;;;;;;;;;;;;;;;;;;;;
2023/05/11 06:16:21;;;;;;;7.22;2.58;;;10.60;99.90;;;;;;6214972;23;20017;-91
2023/05/11 06:19:40;;;;;;;5.20;2.35;;;10.60;1.00;;;;;;6066613;23;20023;-92
2023/05/11 06:23:05;;;;;;;4.35;2.33;;;10.50;1.00;;;;;;6193129;23;20021;-92
2023/05/11 06:26:24;;;;;;;5.75;3.05;;;10.50;1.00;;;;;;6191826;23;20024;-91
2023/05/11 06:29:51;;;;;;;4.10;2.08;;;10.50;94.10;;;;;;6197897;23;20025;-89
2023/05/11 06:33:29;;;;;;;2.50;1.92;;;10.60;1.00;;;;;;6201127;23;20051;-92
2023/05/11 06:36:33;;;;;;;6.18;1.90;;;10.70;99.90;;;;;;6084668;23;20025;-89
2023/05/11 06:51:57;;;;;;;3.10;2.00;;;11.00;99.90;;;;;;6121788;23;20141;-86
2023/05/11 06:55:19;;;;;;;5.40;2.70;;;11.10;99.90;;;;;;6194983;23;20035;-87
2023/05/11 06:59:29;;;;;;;;;;;;;;;;;;;;;
2023/05/11 07:02:44;;;;;;;4.95;1.80;;;11.10;99.90;;;;;;6214785;23;20025;-87
2023/05/11 07:05:48;;;;;;;2.72;2.25;;;11.20;1.00;;;;;;6198551;23;20025;-87
2023/05/11 07:09:21;;;;;;;4.55;1.75;;;11.20;99.90;;;;;;6196869;23;20055;-88
2023/05/11 07:13:29;;;;;;;4.03;1.70;;;11.30;91.10;;;;;;6042165;23;20027;-90
2023/05/11 07:16:52;;;;;;;1.73;1.63;;;11.20;1.00;;;;;;6079563;23;20073;-89
2023/05/11 07:20:17;;;;;;;2.83;1.40;;;11.30;99.90;;;;;;6055078;23;20018;-90
2023/05/11 07:23:06;;;;;;;5.68;1.85;;;11.50;99.90;;;;;;6052185;23;20035;-87
2023/05/11 07:26:20;;;;;;;1.42;1.33;;;11.50;11.90;;;;;;6056724;23;20106;-86
2023/05/11 07:29:08;;;;;;;1.52;1.33;;;11.50;99.90;;;;;;6041095;23;20078;-87
2023/05/11 07:31:55;;;;;;;1.88;1.60;;;11.40;1.00;;;;;;6133871;23;20046;-90
2023/05/11 07:34:57;;;;;;;3.72;1.60;;;11.20;1.00;;;;;;6154820;23;20413;-89
2023/05/11 07:37:44;;;;;;;4.35;2.17;;;10.80;99.90;;;;;;6137036;23;20076;-88
2023/05/11 07:40:32;;;;;;;4.20;1.52;;;10.70;1.00;;;;;;6136931;23;20381;-88
2023/05/11 07:43:19;;;;;;;4.47;1.70;;;10.80;99.90;;;;;;6133512;23;20156;-88
2023/05/11 07:46:06;;;;;;;2.92;2.00;;;10.80;1.00;;;;;;6134813;23;20025;-88
2023/05/11 07:48:54;;;;;;;4.00;1.90;;;10.90;99.90;;;;;;6133514;23;20108;-88
2023/05/11 07:52:01;;;;;;;2.33;2.05;;;10.90;99.90;;;;;;6206587;23;20029;-86
2023/05/11 07:54:49;;;;;;;5.00;2.28;;;11.20;99.90;;;;;;6224195;23;20024;-87
2023/05/11 07:57:37;;;;;;;4.28;2.08;;;11.40;99.90;;;;;;6226999;23;20025;-86
2023/05/11 08:00:24;;;;;;;3.75;1.70;;;11.50;99.90;;;;;;6228829;23;20024;-86
2023/05/11 08:03:14;;;;;;;4.45;1.67;;;11.60;1.00;;;;;;6226607;23;20119;-86
2023/05/11 08:06:04;;;;;;;2.17;1.80;;;11.60;47.40;;;;;;6230564;23;20028;-86
2023/05/11 08:08:52;;;;;;;3.15;1.80;;;11.70;99.90;;;;;;6239326;23;20020;-85
2023/05/11 08:11:41;;;;;;;2.30;1.55;;;11.80;1.00;;;;;;6237464;23;20072;-86
2023/05/11 08:14:28;;;;;;;2.35;1.85;;;11.90;1.00;;;;;;6224220;23;20100;-86
2023/05/11 08:17:15;;;;;;;5.93;1.65;;;12.00;99.90;;;;;;6224141;23;20544;-85
2023/05/11 08:20:05;;;;;;;2.28;1.42;;;12.10;99.90;;;;;;6226442;23;20044;-86
2023/05/11 08:22:53;;;;;;;4.93;1.83;;;12.10;99.90;;;;;;6223784;23;20045;-86
2023/05/11 08:25:40;;;;;;;5.95;1.90;;;12.10;1.00;;;;;;6217254;23;20377;-85
2023/05/11 08:28:28;;;;;;;1.90;1.70;;;12.20;1.00;;;;;;6214478;23;20052;-86
2023/05/11 08:31:17;;;;;;;3.70;2.45;;;12.20;99.90;;;;;;6212468;23;20134;-86
2023/05/11 08:34:07;;;;;;;2.13;1.83;;;12.20;99.90;;;;;;6214649;23;20044;-85
2023/05/11 08:37:05;;;;;;;2.60;1.73;;;12.20;99.90;;;;;;6214072;23;20032;-86
2023/05/11 08:39:53;;;;;;;3.30;1.40;;;12.30;1.00;;;;;;6213177;23;20043;-86
2023/05/11 08:42:45;;;;;;;2.60;1.50;;;12.40;99.90;;;;;;6215365;23;20036;-85
2023/05/11 08:45:35;;;;;;;2.35;1.30;;;12.40;99.90;;;;;;6215356;23;20526;-85
2023/05/11 08:48:26;;;;;;;2.47;1.80;;;12.40;1.00;;;;;;6214394;23;20036;-86
2023/05/11 08:51:14;;;;;;;3.72;1.40;;;12.40;99.90;;;;;;6213126;23;20032;-85
2023/05/11 08:54:02;;;;;;;2.67;1.60;;;12.50;99.90;;;;;;6215181;23;20077;-87
2023/05/11 08:56:50;;;;;;;1.92;1.48;;;12.40;1.00;;;;;;6215843;23;20082;-86
2023/05/11 08:59:39;;;;;;;1.98;1.35;;;12.50;99.90;;;;;;6213934;23;20024;-84
2023/05/11 09:02:27;;;;;;;3.05;1.27;;;12.50;1.00;;;;;;6214549;23;20424;-87
2023/05/11 09:05:18;;;;;;;4.95;1.30;;;12.60;1.00;;;;;;6215770;23;20096;-85
2023/05/11 09:08:16;;;;;;;3.22;1.35;;;12.70;1.00;;;;;;6216136;23;20119;-85
2023/05/11 09:11:05;;;;;;;4.32;1.60;;;12.70;99.90;;;;;;6217648;23;20051;-86
2023/05/11 09:13:52;;;;;;;2.72;1.85;;;12.70;99.90;;;;;;6213900;23;20028;-87
2023/05/11 09:16:40;;;;;;;4.10;1.60;;;12.70;99.90;;;;;;6212627;23;20031;-85
2023/05/11 09:19:28;;;;;;;1.20;1.10;;;12.90;1.00;;;;;;6213961;23;20117;-86
2023/05/11 09:22:15;;;;;;;2.17;1.60;;;13.00;70.90;;;;;;6213943;23;20020;-84
2023/05/11 09:25:03;;;;;;;2.97;1.38;;;12.90;99.90;;;;;;6214311;23;20028;-85
2023/05/11 09:27:51;;;;;;;3.45;1.30;;;12.80;99.90;;;;;;6213250;23;20028;-85
2023/05/11 09:30:38;;;;;;;2.72;1.40;;;12.70;99.90;;;;;;6213975;23;20028;-87
2023/05/11 09:33:26;;;;;;;1.70;1.27;;;12.50;99.90;;;;;;6213882;23;20452;-88
2023/05/11 09:36:23;;;;;;;2.42;1.50;;;12.50;1.00;;;;;;6215665;23;20110;-85
2023/05/11 09:39:12;;;;;;;1.27;1.10;;;12.70;99.90;;;;;;6196390;23;20052;-87
2023/05/11 09:42:16;;;;;;;1.30;1.20;;;13.00;76.50;;;;;;6215264;23;20021;-86
2023/05/11 09:45:04;;;;;;;2.75;1.30;;;13.10;15.90;;;;;;6212825;23;20102;-88
2023/05/11 09:47:52;;;;;;;3.22;1.30;;;13.10;1.00;;;;;;6213090;23;20119;-84
2023/05/11 09:50:40;;;;;;;1.52;1.20;;;13.30;1.00;;;;;;6213264;23;20348;-85
2023/05/11 09:53:37;;;;;;;4.65;1.50;;;13.40;1.00;;;;;;6194848;23;20025;-85
2023/05/11 09:56:57;;;;;;;2.63;1.20;;;13.40;1.00;;;;;;6193103;23;20031;-87
2023/05/11 09:59:48;;;;;;;3.55;1.58;;;13.20;99.90;;;;;;6193694;23;20025;-88
2023/05/11 10:02:37;;;;;;;4.10;1.50;;;13.40;99.90;;;;;;6194170;23;20423;-87
2023/05/11 10:05:35;;;;;;;3.72;1.50;;;13.40;99.90;;;;;;6213863;23;20048;-88
2023/05/11 10:08:33;;;;;;;4.82;1.90;;;13.40;99.90;;;;;;6195280;23;20060;-88
2023/05/11 10:11:21;;;;;;;1.75;1.50;;;13.20;99.90;;;;;;6193053;23;20039;-89
2023/05/11 10:14:17;;;;;;;4.15;1.25;;;13.20;99.90;;;;;;6193665;23;20025;-89
2023/05/11 10:17:17;;;;;;;2.47;1.17;;;13.20;99.90;;;;;;6195827;23;20024;-88
2023/05/11 10:20:19;;;;;;;1.20;1.10;;;13.10;99.90;;;;;;6179073;23;20584;-87
2023/05/11 10:23:17;;;;;;;1.48;1.08;;;13.10;1.00;;;;;;6194113;23;20017;-87
2023/05/11 10:26:14;;;;;;;5.47;1.75;;;13.00;99.90;;;;;;6191388;23;20060;-88
2023/05/11 10:29:26;;;;;;;1.95;1.20;;;12.80;99.90;;;;;;6107195;23;20024;-85
2023/05/11 10:32:47;;;;;;;;;;;;;;;;;;;;;
2023/05/11 10:36:33;;;;;;;1.83;1.65;;;12.80;1.00;;;;;;6212196;23;20025;-88
2023/05/11 10:39:39;;;;;;;1.33;1.23;;;12.80;99.90;;;;;;6193111;23;20056;-88
2023/05/11 10:42:45;;;;;;;3.13;1.40;;;12.90;99.30;;;;;;6193501;23;20021;-85
2023/05/11 10:45:39;;;;;;;1.42;1.05;;;13.00;99.90;;;;;;6190885;23;20024;-84
2023/05/11 10:48:57;;;;;;;4.13;1.25;;;13.10;1.00;;;;;;6190883;23;20083;-88
2023/05/11 10:52:17;;;;;;;3.60;1.48;;;13.00;1.00;;;;;;6197696;23;20031;-86
2023/05/11 10:55:21;;;;;;;1.27;1.10;;;13.10;99.90;;;;;;6212233;23;20495;-86
2023/05/11 10:58:18;;;;;;;2.67;1.00;;;13.40;99.90;;;;;;6213414;23;20035;-85
2023/05/11 11:01:30;;;;;;;1.33;0.82;;;13.50;99.90;;;;;;6212188;23;20447;-86
2023/05/11 11:05:09;;;;;;;1.98;0.93;;;13.80;99.90;;;;;;6214725;23;20166;-85
2023/05/11 11:12:35;;;;;;;1.60;1.05;;;14.30;1.00;;;;;;6206917;23;20026;-85
2023/05/11 11:16:23;;;;;;;2.58;1.20;;;14.80;99.90;;;;;;6214235;23;20028;-89
2023/05/11 11:19:30;;;;;;;3.22;1.15;;;15.10;99.90;;;;;;6215843;23;20056;-88
2023/05/11 11:30:51;;;;;;;;;;;;;;;;;;;;;
2023/05/11 11:34:22;;;;;;;1.35;0.90;;;14.40;99.90;;;;;;6070587;23;20462;-92
2023/05/11 11:37:47;;;;;;;2.65;0.80;;;14.20;99.90;;;;;;6051783;23;20038;-90
2023/05/11 11:41:28;;;;;;;2.63;0.82;;;14.20;99.90;;;;;;6048514;23;20121;-87
2023/05/11 11:44:24;;;;;;;0.70;0.70;;;14.20;88.40;;;;;;6207124;23;20028;-90
2023/05/11 11:51:50;;;;;;;;;;;;;;;;;;;;;
2023/05/11 12:16:26;;;;;;;;;;;;;;;;;;;;;
2023/05/11 12:20:29;;;;;;;2.20;0.93;;;15.40;1.00;;;;;;6223694;23;20017;-89
2023/05/11 12:23:31;;;;;;;1.90;0.75;;;15.50;1.00;;;;;;6207048;23;20458;-87
2023/05/11 12:26:27;;;;;;;1.27;0.60;;;14.80;99.90;;;;;;6214650;23;20107;-87
2023/05/11 12:30:04;;;;;;;;;;;;;;;;;;;;;
2023/05/11 12:32:54;;;;;;;4.03;0.88;;;14.90;1.00;;;;;;6219696;23;20345;-85
2023/05/11 12:35:45;;;;;;;1.00;0.75;;;15.00;1.00;;;;;;6214058;23;20025;-84
2023/05/11 12:39:39;;;;;;;;;;;;;;;;;;;;;
2023/05/11 12:43:44;;;;;;;0.50;0.50;;;15.50;99.90;;;;;;6216949;23;20024;-89
2023/05/11 12:58:24;;;;;;;0.80;0.60;;;15.90;99.90;;;;;;6217833;23;20012;-86
2023/05/11 13:01:35;;;;;;;;;;;;;;;;;;;;;
2023/05/11 13:09:44;;;;;;;0.70;0.70;;;15.80;99.90;;;;;;6035849;23;20042;-90
2023/05/11 13:17:04;;;;;;;1.05;0.50;;;15.30;99.90;;;;;;6042528;23;20019;-91
2023/05/11 13:53:43;;;;;;;3.22;0.93;;;15.90;99.90;;;;;;6126365;23;20041;-87
2023/05/11 13:58:02;;;;;;;1.20;0.68;;;15.90;99.90;;;;;;6125311;23;20026;-91
2023/05/11 14:17:30;;;;;;;1.80;0.80;;;17.70;99.90;;;;;;5750650;24;20024;-93
2023/05/11 14:20:50;;;;;;;1.80;0.60;;;18.30;99.90;;;;;;5723684;24;20119;-90
2023/05/11 14:32:22;;;;;;;1.88;0.60;;;17.80;99.90;;;;;;5671442;24;20328;-92
2023/05/11 14:36:18;;;;;;;;;;;;;;;;;;;;;
2023/05/11 14:39:58;;;;;;;2.35;0.75;;;16.50;99.90;;;;;;5696821;25;20365;-89
2023/05/11 14:47:08;;;;;;;0.85;0.57;;;17.20;99.90;;;;;;5803330;24;20107;-92
2023/05/11 14:50:21;;;;;;;0.80;0.43;;;17.50;99.90;;;;;;5835426;24;20034;-91
2023/05/11 14:53:52;;;;;;;0.70;0.60;;;17.20;99.90;;;;;;5826745;24;20061;-92
2023/05/11 15:01:10;;;;;;;1.10;0.80;;;16.60;99.90;;;;;;5914948;23;20007;-91
2023/05/11 15:04:26;;;;;;;0.50;0.47;;;16.30;99.90;;;;;;6043216;23;20106;-90
2023/05/11 15:07:24;;;;;;;2.00;0.77;;;15.80;99.90;;;;;;6086528;23;20044;-88
2023/05/11 15:10:42;;;;;;;;;;;;;;;;;;;;;
2023/05/11 15:13:34;;;;;;;;;;;16.40;99.90;;;;;;6221698;23;20135;-87
2023/05/11 15:16:22;;;;;;;2.30;0.70;;;16.10;99.90;;;;;;6203490;23;19951;-89
2023/05/11 15:19:10;;;;;;;3.47;0.70;;;15.80;99.90;;;;;;6225781;23;20072;-90
2023/05/11 15:21:58;;;;;;;2.25;0.60;;;15.60;99.90;;;;;;6198697;23;20021;-87
2023/05/11 15:24:48;;;;;;;0.60;0.57;;;15.50;99.90;;;;;;6200966;23;20035;-88
2023/05/11 15:27:35;;;;;;;0.60;0.60;;;15.60;99.90;;;;;;6201412;23;20100;-86
2023/05/11 15:30:25;;;;;;;5.47;1.00;;;15.60;99.90;;;;;;6196287;23;20032;-89
2023/05/11 15:33:14;;;;;;;1.92;0.50;;;15.70;99.90;;;;;;6196847;23;20040;-87
2023/05/11 15:36:04;;;;;;;1.50;1.00;;;15.80;99.90;;;;;;6195187;23;20029;-87
2023/05/11 15:38:55;;;;;;;2.20;1.20;;;15.70;99.90;;;;;;6216462;23;20024;-89
2023/05/11 15:41:44;;;;;;;1.60;0.75;;;15.50;99.90;;;;;;6218478;23;20032;-88
2023/05/11 15:44:36;;;;;;;2.42;0.68;;;15.10;99.90;;;;;;6197543;23;20023;-90
2023/05/11 15:48:03;;;;;;;;;;;;;;;;;;;;;
2023/05/11 15:51:41;;;;;;;2.05;0.73;;;14.60;99.90;;;;;;6148338;23;20026;-90
2023/05/11 15:54:35;;;;;;;;;;;14.10;99.90;;;;;;6177676;23;20035;-89
2023/05/11 15:57:45;;;;;;;1.13;0.65;;;14.00;99.90;;;;;;6194375;23;20320;-91
2023/05/11 16:00:38;;;;;;;1.92;0.82;;;13.90;99.90;;;;;;6183113;23;20036;-88
2023/05/11 16:03:29;;;;;;;2.17;0.85;;;14.10;99.90;;;;;;6189121;23;20091;-87
2023/05/11 16:06:23;;;;;;;1.98;0.77;;;14.10;99.90;;;;;;6198204;23;20039;-89
2023/05/11 16:09:10;;;;;;;1.33;0.60;;;14.20;99.90;;;;;;6177552;23;20032;-89
2023/05/11 16:13:06;;;;;;;1.92;0.73;;;14.30;99.90;;;;;;6212617;23;20035;-88
2023/05/11 16:20:02;;;;;;;0.80;0.80;;;14.40;99.90;;;;;;6214955;23;20025;-86
2023/05/11 16:22:52;;;;;;;0.70;0.60;;;14.40;99.90;;;;;;6214413;23;20032;-87
2023/05/11 16:25:50;;;;;;;0.77;0.77;;;14.40;99.90;;;;;;6193863;23;20401;-92
2023/05/11 16:28:40;;;;;;;2.33;0.80;;;14.40;99.90;;;;;;6195243;23;20043;-89
2023/05/11 16:31:28;;;;;;;0.70;0.70;;;14.50;99.90;;;;;;6216919;23;20032;-87
2023/05/11 16:34:15;;;;;;;2.42;0.80;;;14.50;99.90;;;;;;6216487;23;20036;-88
2023/05/11 16:37:03;;;;;;;1.13;0.70;;;14.40;99.90;;;;;;6196423;23;20103;-87
2023/05/11 16:39:50;;;;;;;3.00;0.70;;;14.50;99.90;;;;;;6215913;23;20029;-88
2023/05/11 16:42:38;;;;;;;1.50;0.90;;;14.60;99.90;;;;;;6196524;23;20064;-87
2023/05/11 16:45:25;;;;;;;1.65;0.73;;;14.50;99.90;;;;;;6216209;23;20100;-88
2023/05/11 16:48:13;;;;;;;0.70;0.70;;;14.40;99.90;;;;;;6215444;23;20028;-88
2023/05/11 16:51:00;;;;;;;2.78;0.70;;;14.30;99.90;;;;;;6213983;23;20032;-88
2023/05/11 16:53:50;;;;;;;5.22;0.98;;;14.20;99.90;;;;;;6214486;23;20033;-89
2023/05/11 16:56:37;;;;;;;2.38;0.90;;;14.10;99.90;;;;;;6195460;23;20028;-89
2023/05/11 16:59:25;;;;;;;1.88;0.90;;;13.90;99.90;;;;;;6192146;23;20029;-89
2023/05/11 17:02:15;;;;;;;2.30;0.90;;;13.90;99.90;;;;;;6214698;23;20087;-88
2023/05/11 17:05:07;;;;;;;3.35;1.08;;;13.80;99.90;;;;;;6216269;23;20016;-90
2023/05/11 17:07:57;;;;;;;1.90;0.90;;;13.70;99.90;;;;;;6217717;23;20050;-87
2023/05/11 17:10:45;;;;;;;3.05;1.00;;;13.40;99.90;;;;;;6196467;23;20029;-88
2023/05/11 17:13:32;;;;;;;1.98;1.05;;;13.30;99.90;;;;;;6197493;23;20028;-88
2023/05/11 17:16:24;;;;;;;1.23;1.10;;;13.20;99.90;;;;;;6215129;23;20032;-90
2023/05/11 17:19:15;;;;;;;1.48;1.27;;;13.10;99.90;;;;;;6215039;23;20140;-91
2023/05/11 17:22:09;;;;;;;5.07;1.50;;;12.90;99.90;;;;;;6198676;23;20043;-88
2023/05/11 17:24:57;;;;;;;3.63;1.30;;;12.80;99.90;;;;;;6195381;23;20324;-88
2023/05/11 17:27:48;;;;;;;1.40;1.30;;;12.70;99.90;;;;;;6216844;23;20035;-87
2023/05/11 17:30:38;;;;;;;2.25;1.35;;;12.60;99.90;;;;;;6196540;23;20047;-89
2023/05/11 17:33:34;;;;;;;1.67;1.30;;;12.50;99.90;;;;;;6214970;23;20032;-87
2023/05/11 17:36:28;;;;;;;2.17;1.33;;;12.50;99.90;;;;;;6219630;23;20054;-88
2023/05/11 17:39:17;;;;;;;1.40;1.30;;;12.40;1.00;;;;;;6218008;23;20031;-90
2023/05/11 17:42:10;;;;;;;1.60;1.50;;;12.40;1.00;;;;;;6195517;23;20428;-89
2023/05/11 17:45:01;;;;;;;1.70;1.42;;;12.40;1.00;;;;;;6196131;23;20032;-90
2023/05/11 17:47:49;;;;;;;5.03;1.90;;;12.30;1.00;;;;;;6217443;23;20329;-89
2023/05/11 17:50:39;;;;;;;3.90;1.73;;;12.30;1.00;;;;;;6217385;23;20029;-88
2023/05/11 17:53:29;;;;;;;2.05;1.67;;;12.20;1.00;;;;;;6196667;23;20066;-86
2023/05/11 17:56:18;;;;;;;3.72;1.80;;;12.10;1.00;;;;;;6196433;23;20025;-87
2023/05/11 18:03:23;;;;;;;4.28;1.58;;;12.00;1.00;;;;;;6216918;23;20012;-89
2023/05/11 18:06:10;;;;;;;2.17;1.83;;;11.80;1.00;;;;;;6218141;23;20024;-86
2023/05/11 18:08:59;;;;;;;5.30;2.40;;;11.80;1.00;;;;;;6218029;23;20079;-88
2023/05/11 18:11:49;;;;;;;5.60;1.88;;;11.70;1.00;;;;;;6186093;23;20157;-89
2023/05/11 18:14:37;;;;;;;3.15;2.00;;;11.60;11.30;;;;;;6216596;23;20028;-89
2023/05/11 18:17:34;;;;;;;2.53;1.85;;;11.50;34.30;;;;;;6197177;23;20020;-90
2023/05/11 18:20:22;;;;;;;2.30;2.00;;;11.40;80.20;;;;;;6195008;23;20056;-88
2023/05/11 18:23:12;;;;;;;2.97;2.15;;;11.30;99.90;;;;;;6195631;23;20022;-89
2023/05/11 18:26:00;;;;;;;1.83;1.73;;;11.20;99.90;;;;;;6197548;23;20021;-90
2023/05/11 18:28:48;;;;;;;2.47;1.92;;;11.10;99.90;;;;;;6219511;23;20032;-89
2023/05/11 18:31:36;;;;;;;3.28;1.90;;;11.10;99.90;;;;;;6195083;23;20452;-88
2023/05/11 18:34:23;;;;;;;3.25;1.90;;;11.00;99.90;;;;;;6196770;23;20029;-90
2023/05/11 18:37:11;;;;;;;2.55;1.70;;;10.90;99.90;;;;;;6201365;23;20024;-90